Time;durP1;ratioP1;P1;durP2;ratioP2;P2;SDS_P1;SDS_P2;PMS_P1;PMS_P2;Temp;Humidity;BMP_temperature;BMP_pressure;BME280_temperature;BME280_humidity;BME280_pressure;Samples;Min_cycle;Max_cycle;Signal;HPM_P1;HPM_P2
2021/12/10 00:00:52;;;;;;;4.00;2.33;;;3.10;94.20;;;;;;5053546;28;20195;-87
2021/12/10 00:03:35;;;;;;;6.40;3.40;;;3.10;93.90;;;;;;5052026;28;20199;-87
2021/12/10 00:06:16;;;;;;;6.77;2.50;;;3.20;93.50;;;;;;5066765;28;20219;-86
2021/12/10 00:08:49;;;;;;;2.83;2.40;;;3.30;92.80;;;;;;5048420;28;20680;-87
2021/12/10 00:11:24;;;;;;;5.57;2.23;;;3.20;93.00;;;;;;5063754;28;20227;-87
2021/12/10 00:13:50;;;;;;;7.67;2.50;;;3.20;93.90;;;;;;5063829;28;20222;-87
2021/12/10 00:16:18;;;;;;;5.20;2.50;;;3.10;93.60;;;;;;5067930;28;20228;-87
2021/12/10 00:18:51;;;;;;;3.67;2.50;;;3.10;93.70;;;;;;5054188;28;20216;-87
2021/12/10 00:21:17;;;;;;;5.57;2.67;;;3.00;94.10;;;;;;5052399;28;20688;-87
2021/12/10 00:23:46;;;;;;;4.20;2.70;;;2.90;95.00;;;;;;5023697;28;20287;-87
2021/12/10 00:26:12;;;;;;;4.07;2.60;;;2.80;94.50;;;;;;5051066;28;20686;-87
2021/12/10 00:28:40;;;;;;;5.30;2.50;;;2.80;95.60;;;;;;5052450;28;20204;-87
2021/12/10 00:34:13;;;;;;;4.50;2.23;;;2.80;95.60;;;;;;5054969;28;20226;-87
2021/12/10 00:36:41;;;;;;;6.20;2.80;;;2.70;95.70;;;;;;5051485;28;20230;-87
2021/12/10 00:39:12;;;;;;;3.43;2.60;;;2.70;96.10;;;;;;5050043;28;20200;-87
2021/12/10 00:41:40;;;;;;;6.27;2.60;;;2.80;96.70;;;;;;5055991;28;20284;-87
2021/12/10 00:44:09;;;;;;;5.47;3.07;;;2.90;96.10;;;;;;5035745;28;20263;-85
2021/12/10 00:46:38;;;;;;;6.13;2.73;;;3.00;96.10;;;;;;5054676;28;20204;-87
2021/12/10 00:49:08;;;;;;;6.97;2.80;;;2.90;95.90;;;;;;5054992;28;20212;-85
2021/12/10 00:51:35;;;;;;;5.03;2.70;;;2.90;96.20;;;;;;5039191;28;20219;-86
2021/12/10 00:54:03;;;;;;;7.50;3.00;;;2.90;96.00;;;;;;5049036;28;20288;-87
2021/12/10 00:56:29;;;;;;;5.57;2.80;;;2.90;96.10;;;;;;5052822;28;20254;-87
2021/12/10 00:58:58;;;;;;;4.27;3.00;;;2.90;96.80;;;;;;5054546;28;20621;-87
2021/12/10 01:01:28;;;;;;;5.13;3.03;;;2.80;96.00;;;;;;5055208;28;20781;-85
2021/12/10 01:04:02;;;;;;;7.13;2.90;;;2.90;96.50;;;;;;5049449;28;20184;-87
2021/12/10 01:06:30;;;;;;;4.37;2.67;;;2.90;96.10;;;;;;5054204;28;20204;-87
2021/12/10 01:09:07;;;;;;;6.60;3.40;;;2.90;95.90;;;;;;5055371;28;20727;-88
2021/12/10 01:11:42;;;;;;;5.80;2.93;;;2.80;96.40;;;;;;5050042;28;20720;-87
2021/12/10 01:14:26;;;;;;;8.47;3.20;;;2.80;96.50;;;;;;5064649;28;20203;-87
2021/12/10 01:25:33;;;;;;;5.23;2.77;;;2.70;97.50;;;;;;5058253;28;20203;-88
2021/12/10 01:27:59;;;;;;;6.17;2.63;;;2.80;97.20;;;;;;5055404;28;20203;-87
2021/12/10 01:30:36;;;;;;;5.20;2.57;;;2.80;97.10;;;;;;5056613;28;20192;-85
2021/12/10 01:33:13;;;;;;;5.00;2.67;;;2.70;96.90;;;;;;5062326;28;20272;-87
2021/12/10 01:35:49;;;;;;;6.27;3.00;;;2.80;97.80;;;;;;5048467;28;20235;-87
2021/12/10 01:38:19;;;;;;;3.37;2.57;;;2.90;98.30;;;;;;5056805;28;20224;-87
2021/12/10 01:40:52;;;;;;;5.73;2.80;;;2.90;97.50;;;;;;5058916;28;20196;-87
2021/12/10 01:43:25;;;;;;;5.20;2.93;;;3.00;97.00;;;;;;5056267;28;20189;-86
2021/12/10 01:46:06;;;;;;;5.10;2.70;;;3.00;96.90;;;;;;5069815;28;20205;-87
2021/12/10 01:48:49;;;;;;;5.30;3.07;;;3.00;96.60;;;;;;5065792;28;20545;-87
2021/12/10 01:51:49;;;;;;;8.27;3.00;;;3.00;96.10;;;;;;5053589;28;20644;-88
2021/12/10 01:54:21;;;;;;;3.90;2.50;;;2.90;95.80;;;;;;5050551;28;20804;-87
2021/12/10 01:56:56;;;;;;;5.67;3.00;;;3.00;96.40;;;;;;5069180;28;20192;-87
2021/12/10 01:59:36;;;;;;;4.87;2.60;;;3.00;96.00;;;;;;5065510;28;20204;-88
2021/12/10 02:02:15;;;;;;;4.53;2.93;;;2.90;95.30;;;;;;5049523;28;20219;-86
2021/12/10 02:04:43;;;;;;;4.50;3.23;;;2.80;94.20;;;;;;5070689;28;20187;-86
2021/12/10 02:07:12;;;;;;;4.03;2.87;;;2.70;95.30;;;;;;5052844;28;20196;-87
2021/12/10 02:09:40;;;;;;;4.90;2.87;;;2.70;95.60;;;;;;5056989;28;20184;-86
2021/12/10 02:12:07;;;;;;;6.87;3.17;;;2.70;96.00;;;;;;5054033;28;20767;-86
2021/12/10 02:14:41;;;;;;;5.33;2.70;;;2.60;95.90;;;;;;5053421;28;20197;-86
2021/12/10 02:17:10;;;;;;;5.90;2.90;;;2.60;96.30;;;;;;5051781;28;20254;-87
2021/12/10 02:19:36;;;;;;;4.07;2.50;;;2.50;96.30;;;;;;5046486;28;20204;-86
2021/12/10 02:22:08;;;;;;;3.63;2.47;;;2.50;96.10;;;;;;5061354;28;20251;-86
2021/12/10 02:24:37;;;;;;;3.60;2.50;;;2.50;97.00;;;;;;5056117;28;20548;-86
2021/12/10 02:27:06;;;;;;;4.30;2.40;;;2.50;96.40;;;;;;5052920;28;20193;-87
2021/12/10 02:29:36;;;;;;;5.90;2.57;;;2.50;96.80;;;;;;5049331;28;20188;-86
2021/12/10 02:32:05;;;;;;;4.33;2.27;;;2.50;96.90;;;;;;5049047;28;20277;-86
2021/12/10 02:34:34;;;;;;;6.47;2.77;;;2.40;94.10;;;;;;5053058;28;20684;-87
2021/12/10 02:37:00;;;;;;;5.20;2.50;;;2.40;96.40;;;;;;5054588;28;20292;-86
2021/12/10 02:39:31;;;;;;;4.70;2.50;;;2.40;96.30;;;;;;5070184;28;20192;-86
2021/12/10 02:41:57;;;;;;;3.00;2.00;;;2.40;96.20;;;;;;5038425;28;20275;-86
2021/12/10 02:44:30;;;;;;;3.83;2.03;;;2.40;96.30;;;;;;5056056;28;20324;-86
2021/12/10 02:46:57;;;;;;;5.03;2.60;;;2.50;96.60;;;;;;5056521;28;20177;-86
2021/12/10 02:49:24;;;;;;;5.00;2.87;;;2.40;96.20;;;;;;5053670;28;20258;-86
2021/12/10 02:51:49;;;;;;;6.47;2.77;;;2.30;96.20;;;;;;5055747;28;20231;-86
2021/12/10 02:54:22;;;;;;;3.10;2.40;;;2.30;95.40;;;;;;5045241;28;20676;-86
2021/12/10 02:56:49;;;;;;;4.00;2.67;;;2.20;96.70;;;;;;5055388;28;20188;-86
2021/12/10 02:59:15;;;;;;;3.43;2.20;;;2.40;97.10;;;;;;5054462;28;20196;-87
2021/12/10 03:01:44;;;;;;;4.53;3.00;;;2.40;97.10;;;;;;5068562;28;20280;-86
2021/12/10 03:04:14;;;;;;;4.63;2.30;;;2.50;96.40;;;;;;5066411;28;20255;-86
2021/12/10 03:06:48;;;;;;;4.03;2.40;;;2.20;96.10;;;;;;5051411;28;20210;-86
2021/12/10 03:09:15;;;;;;;4.53;2.93;;;2.30;97.00;;;;;;5051570;28;20196;-86
2021/12/10 03:11:48;;;;;;;5.77;2.90;;;2.30;97.00;;;;;;5050621;28;20220;-86
2021/12/10 03:14:17;;;;;;;4.77;2.83;;;2.30;97.80;;;;;;5041405;28;20947;-86
2021/12/10 03:16:44;;;;;;;9.73;3.80;;;2.30;97.90;;;;;;5052114;28;20614;-87
2021/12/10 03:19:11;;;;;;;6.10;3.47;;;2.40;95.90;;;;;;5051068;28;20201;-86
2021/12/10 03:21:39;;;;;;;4.67;3.20;;;2.30;97.00;;;;;;5053301;28;20254;-86
2021/12/10 03:24:06;;;;;;;4.03;3.00;;;2.20;97.50;;;;;;5054918;28;20200;-86
2021/12/10 03:26:32;;;;;;;5.23;2.93;;;2.20;98.30;;;;;;5034465;28;20215;-86
2021/12/10 03:28:58;;;;;;;5.33;2.47;;;2.30;98.10;;;;;;5048110;28;20200;-85
2021/12/10 03:31:26;;;;;;;4.20;3.07;;;2.40;97.70;;;;;;5058831;28;20224;-87
2021/12/10 03:33:54;;;;;;;4.67;2.70;;;2.50;97.50;;;;;;5042825;28;20193;-86
2021/12/10 03:36:20;;;;;;;4.70;2.50;;;2.50;97.50;;;;;;5051728;28;20193;-86
2021/12/10 03:38:47;;;;;;;3.80;2.70;;;2.60;96.90;;;;;;5054005;28;20185;-86
2021/12/10 03:41:14;;;;;;;4.07;2.50;;;2.50;96.70;;;;;;5038604;28;20224;-86
2021/12/10 03:43:44;;;;;;;6.37;3.20;;;2.60;96.00;;;;;;5069565;28;20250;-86
2021/12/10 03:46:10;;;;;;;5.87;2.77;;;2.60;95.60;;;;;;5047578;28;20720;-86
2021/12/10 03:48:40;;;;;;;3.93;2.80;;;2.50;95.60;;;;;;5062735;28;20196;-86
2021/12/10 03:51:11;;;;;;;5.43;2.93;;;2.50;94.80;;;;;;5048448;28;20244;-86
2021/12/10 03:53:38;;;;;;;5.60;3.70;;;2.40;95.20;;;;;;5052302;28;20193;-87
2021/12/10 03:56:15;;;;;;;4.80;2.80;;;2.30;94.90;;;;;;5050235;28;20193;-86
2021/12/10 03:58:41;;;;;;;5.67;3.03;;;2.30;95.70;;;;;;5052308;28;20181;-86
2021/12/10 04:01:10;;;;;;;3.60;2.37;;;2.20;96.20;;;;;;5048063;28;20197;-86
2021/12/10 04:03:37;;;;;;;4.87;2.70;;;2.20;96.10;;;;;;5036865;28;20192;-86
2021/12/10 04:06:03;;;;;;;4.27;2.50;;;2.20;96.20;;;;;;5038752;28;20283;-86
2021/12/10 04:08:29;;;;;;;3.80;2.20;;;2.20;95.60;;;;;;5035890;28;20196;-86
2021/12/10 04:10:56;;;;;;;4.73;2.67;;;2.10;96.20;;;;;;5050738;28;20196;-86
2021/12/10 04:13:22;;;;;;;3.90;3.03;;;2.10;97.00;;;;;;5042959;28;20268;-86
2021/12/10 04:15:48;;;;;;;3.73;2.40;;;2.10;97.30;;;;;;5054898;28;20241;-86
2021/12/10 04:18:14;;;;;;;5.00;2.40;;;2.20;97.30;;;;;;5054370;28;20184;-87
2021/12/10 04:20:41;;;;;;;13.47;12.07;;;2.30;97.00;;;;;;5066316;28;20188;-86
2021/12/10 04:23:10;;;;;;;4.27;2.77;;;2.10;96.20;;;;;;5038367;28;20215;-86
2021/12/10 04:25:37;;;;;;;3.93;2.93;;;2.00;95.70;;;;;;5052318;28;20310;-86
2021/12/10 04:28:08;;;;;;;3.67;2.87;;;2.00;95.90;;;;;;5053708;28;20180;-85
2021/12/10 04:30:39;;;;;;;3.23;2.30;;;2.00;96.90;;;;;;5038436;28;20712;-87
2021/12/10 04:33:09;;;;;;;2.90;2.17;;;2.10;96.90;;;;;;5051254;28;20303;-86
2021/12/10 04:35:36;;;;;;;4.80;2.53;;;2.10;97.10;;;;;;5050184;28;20845;-86
2021/12/10 04:38:03;;;;;;;2.37;2.10;;;2.20;96.60;;;;;;5051715;28;20270;-86
2021/12/10 04:40:29;;;;;;;4.47;2.73;;;2.10;95.80;;;;;;5051366;28;20192;-86
2021/12/10 04:42:55;;;;;;;3.23;2.13;;;2.10;94.70;;;;;;5051474;28;20211;-86
2021/12/10 04:45:21;;;;;;;3.10;2.10;;;2.10;95.00;;;;;;5044262;28;20188;-86
2021/12/10 04:47:51;;;;;;;3.20;1.87;;;2.00;95.70;;;;;;5053062;28;20185;-86
2021/12/10 04:50:20;;;;;;;6.40;2.30;;;2.00;96.20;;;;;;5058237;28;20188;-86
2021/12/10 04:52:46;;;;;;;3.77;2.17;;;2.00;96.30;;;;;;5049150;28;20780;-86
2021/12/10 04:55:13;;;;;;;3.03;2.73;;;2.10;96.90;;;;;;5057168;28;20192;-86
2021/12/10 04:57:41;;;;;;;4.40;2.00;;;2.10;96.10;;;;;;5058340;28;20192;-87
2021/12/10 05:00:11;;;;;;;3.90;2.13;;;2.20;96.40;;;;;;5048787;28;20569;-85
2021/12/10 05:02:37;;;;;;;3.50;2.00;;;2.20;96.40;;;;;;5054167;28;20208;-86
2021/12/10 05:05:05;;;;;;;4.53;2.00;;;2.30;96.60;;;;;;5075510;28;20843;-86
2021/12/10 05:07:35;;;;;;;2.73;2.07;;;2.20;95.80;;;;;;5048910;28;20264;-86
2021/12/10 05:10:06;;;;;;;2.20;1.67;;;2.30;95.80;;;;;;5053130;28;20207;-86
2021/12/10 05:12:32;;;;;;;3.50;1.77;;;2.20;95.50;;;;;;5058833;28;20212;-86
2021/12/10 05:15:00;;;;;;;1.70;1.60;;;2.20;94.80;;;;;;5058355;28;20549;-86
2021/12/10 05:17:30;;;;;;;3.73;1.87;;;2.00;94.00;;;;;;5037477;28;20250;-86
2021/12/10 05:19:59;;;;;;;4.53;1.93;;;1.90;94.60;;;;;;5053025;28;20195;-86
2021/12/10 05:22:27;;;;;;;7.20;1.80;;;1.80;95.20;;;;;;5057766;28;20283;-86
2021/12/10 05:24:53;;;;;;;3.10;1.87;;;1.80;96.60;;;;;;5056862;28;20188;-86
2021/12/10 05:27:19;;;;;;;7.03;4.00;;;2.00;97.10;;;;;;5052191;28;20200;-86
2021/12/10 05:29:45;;;;;;;9.07;4.67;;;2.00;96.50;;;;;;5057543;28;20212;-85
2021/12/10 05:32:16;;;;;;;6.93;2.97;;;2.00;94.90;;;;;;5055134;28;20729;-86
2021/12/10 05:34:42;;;;;;;7.23;3.90;;;2.00;96.20;;;;;;5074370;28;20184;-85
2021/12/10 05:37:09;;;;;;;7.57;3.60;;;2.00;95.60;;;;;;5057858;28;20218;-85
2021/12/10 05:39:35;;;;;;;5.33;3.23;;;2.10;95.70;;;;;;5059091;28;20200;-85
2021/12/10 05:42:03;;;;;;;4.73;2.63;;;2.00;95.20;;;;;;5056336;28;20327;-86
2021/12/10 05:44:29;;;;;;;2.80;2.20;;;2.00;94.70;;;;;;5047902;28;20284;-86
2021/12/10 05:46:55;;;;;;;3.07;2.40;;;2.00;95.40;;;;;;5057971;28;20188;-86
2021/12/10 05:49:21;;;;;;;3.20;1.93;;;2.10;95.90;;;;;;5057959;28;20192;-86
2021/12/10 05:51:46;;;;;;;4.20;2.63;;;2.20;96.00;;;;;;5051455;28;20235;-86
2021/12/10 05:54:12;;;;;;;4.33;2.40;;;2.20;95.40;;;;;;5051815;28;20180;-86
2021/12/10 05:56:38;;;;;;;2.77;2.30;;;2.20;94.80;;;;;;5054390;28;20208;-86
2021/12/10 05:59:05;;;;;;;3.63;2.07;;;2.10;94.00;;;;;;5053800;28;20237;-86
2021/12/10 06:01:31;;;;;;;4.03;2.07;;;2.10;94.50;;;;;;5051937;28;20566;-86
2021/12/10 06:03:57;;;;;;;3.10;1.90;;;2.10;95.00;;;;;;5057183;28;20532;-86
2021/12/10 06:06:26;;;;;;;4.53;2.10;;;2.20;95.10;;;;;;5053063;28;20201;-86
2021/12/10 06:08:53;;;;;;;3.33;2.07;;;2.10;94.20;;;;;;5057169;28;20215;-86
2021/12/10 06:11:20;;;;;;;5.50;2.17;;;2.00;94.00;;;;;;5051831;28;20216;-86
2021/12/10 06:13:46;;;;;;;3.33;2.20;;;2.00;95.00;;;;;;5052009;28;20269;-86
2021/12/10 06:16:16;;;;;;;2.40;2.10;;;2.00;95.00;;;;;;5053708;28;20192;-86
2021/12/10 06:18:59;;;;;;;2.53;1.90;;;2.00;94.80;;;;;;5056776;28;20204;-86
2021/12/10 06:21:25;;;;;;;5.37;2.37;;;2.00;94.60;;;;;;5058884;28;20220;-86
2021/12/10 06:23:51;;;;;;;3.50;3.20;;;1.90;95.20;;;;;;5048860;28;20188;-86
2021/12/10 06:26:23;;;;;;;5.33;2.43;;;1.90;93.30;;;;;;5071330;28;20192;-86
2021/12/10 06:28:49;;;;;;;6.03;2.77;;;1.80;95.00;;;;;;5064132;28;20203;-86
2021/12/10 06:31:17;;;;;;;4.27;3.00;;;1.90;94.70;;;;;;5053556;28;20677;-87
2021/12/10 06:33:43;;;;;;;5.87;4.23;;;1.90;92.90;;;;;;5055481;28;20184;-85
2021/12/10 06:36:11;;;;;;;2.67;2.23;;;1.90;92.50;;;;;;5058411;28;20265;-85
2021/12/10 06:38:38;;;;;;;3.40;2.40;;;1.90;94.40;;;;;;5059857;28;20188;-85
2021/12/10 06:41:05;;;;;;;3.47;2.33;;;1.90;94.80;;;;;;5057003;28;20251;-85
2021/12/10 06:43:31;;;;;;;4.20;2.90;;;1.90;94.90;;;;;;5051213;28;20188;-85
2021/12/10 06:45:57;;;;;;;3.37;2.57;;;1.90;94.60;;;;;;5059116;28;20187;-86
2021/12/10 06:48:25;;;;;;;6.57;4.37;;;1.90;94.70;;;;;;5059403;28;20242;-86
2021/12/10 06:50:58;;;;;;;7.13;5.03;;;1.90;94.30;;;;;;5057402;28;20193;-87
2021/12/10 06:53:26;;;;;;;4.80;3.87;;;1.80;93.00;;;;;;5054596;28;20283;-87
2021/12/10 06:55:52;;;;;;;5.40;3.40;;;1.50;93.90;;;;;;5066940;28;20180;-87
2021/12/10 06:58:19;;;;;;;7.43;3.93;;;1.40;95.60;;;;;;5055414;28;20189;-87
2021/12/10 07:00:52;;;;;;;6.50;5.00;;;1.50;96.80;;;;;;5038282;28;20195;-87
2021/12/10 07:03:21;;;;;;;3.83;2.73;;;1.60;96.80;;;;;;5051947;28;20662;-87
2021/12/10 07:05:48;;;;;;;5.03;2.30;;;1.60;96.50;;;;;;5051535;28;20195;-87
2021/12/10 07:08:14;;;;;;;3.70;2.57;;;1.70;96.90;;;;;;5036289;28;20208;-87
2021/12/10 07:10:41;;;;;;;6.13;2.70;;;1.70;95.80;;;;;;5057305;28;20200;-87
2021/12/10 07:13:07;;;;;;;6.57;3.57;;;1.60;96.70;;;;;;5067683;28;20358;-87
2021/12/10 07:15:36;;;;;;;6.37;3.20;;;1.60;97.10;;;;;;5041151;28;20192;-86
2021/12/10 07:18:02;;;;;;;5.80;2.63;;;1.50;94.90;;;;;;5063816;28;20200;-86
2021/12/10 07:20:28;;;;;;;4.27;3.00;;;1.50;96.70;;;;;;5064870;28;20199;-86
2021/12/10 07:22:54;;;;;;;7.00;3.70;;;1.60;97.00;;;;;;5056310;28;20573;-86
2021/12/10 07:25:21;;;;;;;5.83;4.07;;;1.70;97.20;;;;;;5041832;28;20197;-86
2021/12/10 07:27:48;;;;;;;5.50;3.90;;;1.70;96.10;;;;;;5056365;28;20189;-86
2021/12/10 07:30:16;;;;;;;4.40;3.33;;;1.70;96.60;;;;;;5075627;28;20203;-85
2021/12/10 07:32:42;;;;;;;3.67;2.50;;;1.70;96.70;;;;;;5055826;28;20246;-86
2021/12/10 07:35:09;;;;;;;5.23;2.77;;;1.70;95.30;;;;;;5072626;28;20218;-84
2021/12/10 07:37:36;;;;;;;4.83;3.37;;;1.60;96.20;;;;;;5054279;28;20181;-86
2021/12/10 07:40:05;;;;;;;9.93;6.63;;;1.70;96.50;;;;;;5060355;28;20224;-86
2021/12/10 07:42:31;;;;;;;11.00;7.37;;;1.70;96.00;;;;;;5067952;28;20199;-86
2021/12/10 07:44:57;;;;;;;6.63;4.30;;;1.70;95.50;;;;;;5064386;28;20568;-85
2021/12/10 07:47:24;;;;;;;4.70;2.67;;;1.60;95.50;;;;;;5061546;28;20208;-89
2021/12/10 07:49:50;;;;;;;4.03;2.90;;;1.60;95.80;;;;;;5052437;28;20230;-91
2021/12/10 07:52:22;;;;;;;7.47;2.83;;;1.70;96.30;;;;;;5060546;28;20217;-91
2021/12/10 07:54:49;;;;;;;3.83;2.87;;;1.80;95.60;;;;;;5058029;28;20184;-88
2021/12/10 07:57:17;;;;;;;9.97;5.70;;;1.90;95.60;;;;;;5060421;28;20200;-88
2021/12/10 07:59:44;;;;;;;5.53;2.90;;;1.90;94.50;;;;;;5058947;28;20570;-89
2021/12/10 08:02:10;;;;;;;4.70;2.57;;;1.70;95.80;;;;;;5041751;28;20220;-89
2021/12/10 08:04:36;;;;;;;4.20;3.30;;;1.70;96.20;;;;;;5057816;28;20184;-89
2021/12/10 08:07:02;;;;;;;7.17;2.93;;;1.80;96.50;;;;;;5063007;28;20207;-89
2021/12/10 08:09:28;;;;;;;4.63;2.73;;;1.70;95.60;;;;;;5056898;28;20218;-89
2021/12/10 08:11:54;;;;;;;3.63;2.83;;;1.70;96.70;;;;;;5054289;28;20293;-89
2021/12/10 08:14:23;;;;;;;4.40;3.23;;;1.80;96.10;;;;;;5056236;28;20215;-88
2021/12/10 08:16:49;;;;;;;4.83;3.50;;;1.80;96.80;;;;;;5058669;28;20211;-89
2021/12/10 08:19:16;;;;;;;2.87;2.60;;;1.90;96.80;;;;;;5053008;28;20292;-88
2021/12/10 08:21:48;;;;;;;5.20;3.60;;;2.00;96.90;;;;;;5029589;23;20234;-88
2021/12/10 08:24:19;;;;;;;7.13;6.43;;;1.90;96.70;;;;;;5029267;28;20185;-88
2021/12/10 08:26:52;;;;;;;6.53;4.30;;;1.90;96.00;;;;;;5028502;28;20248;-87
2021/12/10 08:29:20;;;;;;;5.40;4.33;;;2.00;96.40;;;;;;5030390;28;20192;-87
2021/12/10 08:31:52;;;;;;;4.67;4.17;;;2.00;96.80;;;;;;5029528;28;20205;-87
2021/12/10 08:34:20;;;;;;;5.77;4.30;;;1.90;96.10;;;;;;5025251;28;20203;-87
2021/12/10 08:36:50;;;;;;;4.40;4.00;;;1.90;95.00;;;;;;5003593;28;20213;-88
2021/12/10 08:39:16;;;;;;;7.53;4.30;;;1.90;90.90;;;;;;4995531;28;20188;-87
2021/12/10 08:41:45;;;;;;;6.40;4.00;;;1.90;89.60;;;;;;5025738;28;20223;-88
2021/12/10 08:44:21;;;;;;;5.70;3.47;;;1.90;89.20;;;;;;5029831;28;20568;-87
2021/12/10 08:46:47;;;;;;;7.13;4.03;;;1.80;89.80;;;;;;5013701;28;20184;-87
2021/12/10 08:49:16;;;;;;;4.50;3.10;;;1.90;90.70;;;;;;5001935;28;20189;-87
2021/12/10 08:51:47;;;;;;;5.33;3.30;;;1.90;90.60;;;;;;5015224;28;20209;-87
2021/12/10 08:54:17;;;;;;;5.13;3.90;;;1.80;90.90;;;;;;5028042;28;20200;-88
2021/12/10 08:56:48;;;;;;;5.73;3.87;;;1.70;91.70;;;;;;5036148;28;20181;-88
2021/12/10 08:59:26;;;;;;;6.83;3.70;;;1.60;93.20;;;;;;5016720;28;20256;-88
2021/12/10 09:02:08;;;;;;;7.47;3.77;;;1.60;94.50;;;;;;5022563;28;20278;-88
2021/12/10 09:05:02;;;;;;;5.13;3.70;;;1.60;95.00;;;;;;5021995;28;20715;-88
2021/12/10 09:07:45;;;;;;;6.87;4.70;;;1.50;96.10;;;;;;5030332;28;20252;-88
2021/12/10 09:10:19;;;;;;;7.77;3.93;;;1.50;96.90;;;;;;5010998;28;20772;-88
2021/12/10 09:12:47;;;;;;;7.00;3.93;;;1.40;97.50;;;;;;5009323;28;20573;-88
2021/12/10 09:15:19;;;;;;;7.40;3.50;;;1.50;97.60;;;;;;5038359;28;20244;-89
2021/12/10 09:17:46;;;;;;;8.13;3.67;;;1.50;97.60;;;;;;5038348;28;20177;-88
2021/12/10 09:20:22;;;;;;;5.70;3.60;;;1.60;97.10;;;;;;5015776;28;20240;-89
2021/12/10 09:22:49;;;;;;;5.53;4.00;;;1.60;97.70;;;;;;5037413;28;20243;-89
2021/12/10 09:25:17;;;;;;;9.13;3.80;;;1.70;97.20;;;;;;5036323;28;20204;-88
2021/12/10 09:27:43;;;;;;;9.10;3.80;;;1.70;97.00;;;;;;5041026;28;20813;-89
2021/12/10 09:30:31;;;;;;;5.30;3.57;;;1.60;98.40;;;;;;5026280;28;20255;-89
2021/12/10 09:33:01;;;;;;;12.10;8.53;;;1.60;98.70;;;;;;5049297;28;20216;-89
2021/12/10 09:35:36;;;;;;;8.27;3.57;;;1.60;99.10;;;;;;5024411;28;20181;-88
2021/12/10 09:38:10;;;;;;;11.70;4.27;;;1.70;98.40;;;;;;5034220;28;20676;-89
2021/12/10 09:40:40;;;;;;;4.80;3.13;;;1.80;99.30;;;;;;5025724;28;20186;-88
2021/12/10 09:43:10;;;;;;;6.27;3.57;;;1.80;98.80;;;;;;5039715;28;20223;-88
2021/12/10 09:45:40;;;;;;;7.30;3.70;;;1.90;98.80;;;;;;5042902;28;20227;-88
2021/12/10 09:48:08;;;;;;;4.50;3.73;;;1.90;98.50;;;;;;5013863;28;20201;-88
2021/12/10 09:50:40;;;;;;;7.97;4.43;;;1.90;99.10;;;;;;5028201;28;20255;-88
2021/12/10 09:53:07;;;;;;;6.60;3.60;;;2.00;98.30;;;;;;5046228;28;20215;-88
2021/12/10 09:55:34;;;;;;;6.30;3.13;;;2.10;98.50;;;;;;5040622;28;20223;-88
2021/12/10 09:58:01;;;;;;;3.93;3.00;;;2.10;98.50;;;;;;5025131;28;20225;-88
2021/12/10 10:00:38;;;;;;;5.50;3.20;;;2.20;99.30;;;;;;5024395;28;20284;-89
2021/12/10 10:03:11;;;;;;;8.03;3.47;;;2.30;99.30;;;;;;5039795;28;20209;-88
2021/12/10 10:05:43;;;;;;;4.77;3.43;;;2.30;98.70;;;;;;5026153;28;20201;-89
2021/12/10 10:08:16;;;;;;;4.77;3.90;;;2.40;98.80;;;;;;5032954;28;20212;-88
2021/12/10 10:10:50;;;;;;;6.87;5.13;;;2.50;98.80;;;;;;5000679;28;20203;-88
2021/12/10 10:13:22;;;;;;;7.17;4.03;;;2.50;98.80;;;;;;5029013;28;20200;-87
2021/12/10 10:15:55;;;;;;;6.53;4.13;;;2.50;98.10;;;;;;5034871;28;20195;-88
2021/12/10 10:18:28;;;;;;;7.73;3.80;;;2.50;98.40;;;;;;5027123;28;20191;-87
2021/12/10 10:21:13;;;;;;;5.30;3.33;;;2.60;98.90;;;;;;5044834;28;20200;-89
2021/12/10 10:23:43;;;;;;;5.97;3.50;;;2.60;98.50;;;;;;5015275;28;20236;-88
2021/12/10 10:26:24;;;;;;;5.17;3.80;;;2.60;98.50;;;;;;5027091;28;20240;-88
2021/12/10 10:28:58;;;;;;;5.93;4.60;;;2.60;99.00;;;;;;5019310;28;20184;-88
2021/12/10 10:31:27;;;;;;;6.50;3.60;;;2.70;99.40;;;;;;5026095;28;20205;-88
2021/12/10 10:33:59;;;;;;;6.77;3.83;;;2.70;99.60;;;;;;5040511;28;20773;-87
2021/12/10 10:36:30;;;;;;;6.07;4.00;;;2.60;99.90;;;;;;5044024;28;20192;-88
2021/12/10 10:39:15;;;;;;;6.07;3.87;;;2.60;99.90;;;;;;5041412;28;20189;-89
2021/12/10 10:41:53;;;;;;;4.20;3.80;;;2.70;99.90;;;;;;5044165;28;20251;-87
2021/12/10 10:44:21;;;;;;;7.13;4.17;;;2.60;99.90;;;;;;5034362;28;20189;-88
2021/12/10 10:46:51;;;;;;;4.93;3.77;;;2.60;99.90;;;;;;5020476;28;20196;-88
2021/12/10 10:49:33;;;;;;;7.87;5.00;;;2.60;99.90;;;;;;5033406;28;20185;-88
2021/12/10 10:52:25;;;;;;;6.47;4.30;;;2.60;99.90;;;;;;5033701;28;20244;-88
2021/12/10 10:54:58;;;;;;;6.87;4.40;;;2.60;99.90;;;;;;5041997;28;20216;-88
2021/12/10 10:57:28;;;;;;;8.90;6.33;;;2.60;99.90;;;;;;5039725;28;20197;-88
2021/12/10 10:59:59;;;;;;;5.70;4.23;;;2.70;99.90;;;;;;5025503;28;20203;-88
2021/12/10 11:02:37;;;;;;;5.07;4.23;;;2.70;99.90;;;;;;5023387;28;20279;-88
2021/12/10 11:05:11;;;;;;;5.77;4.30;;;2.70;99.90;;;;;;5013679;28;20220;-88
2021/12/10 11:07:45;;;;;;;5.67;4.27;;;2.80;99.90;;;;;;5027615;28;20210;-88
2021/12/10 11:10:12;;;;;;;5.00;3.50;;;2.70;99.90;;;;;;5021487;28;20665;-88
2021/12/10 11:12:45;;;;;;;4.73;3.63;;;2.80;99.90;;;;;;5010889;28;22497;-88
2021/12/10 11:15:16;;;;;;;4.60;3.50;;;2.80;99.90;;;;;;5026864;28;20560;-88
2021/12/10 11:17:50;;;;;;;6.83;3.43;;;2.90;99.90;;;;;;5039709;28;20281;-88
2021/12/10 11:20:34;;;;;;;4.60;3.13;;;2.80;99.90;;;;;;5018249;28;20222;-88
2021/12/10 11:23:07;;;;;;;7.13;3.90;;;2.90;99.90;;;;;;5042657;28;20304;-87
2021/12/10 11:28:54;;;;;;;8.27;7.67;;;2.90;99.90;;;;;;5050938;23;20313;-85
2021/12/10 11:31:19;;;;;;;5.43;4.60;;;2.90;99.90;;;;;;5061113;28;20200;-85
2021/12/10 11:33:50;;;;;;;8.10;3.87;;;2.90;99.90;;;;;;5061500;28;20188;-86
2021/12/10 11:36:23;;;;;;;4.50;4.10;;;3.00;99.90;;;;;;5075061;28;20687;-86
2021/12/10 11:38:54;;;;;;;6.27;5.70;;;3.00;99.90;;;;;;5081054;28;20223;-87
2021/12/10 11:41:26;;;;;;;8.80;7.80;;;3.10;99.90;;;;;;5064462;28;20202;-87
2021/12/10 11:47:15;;;;;;;5.23;4.03;;;3.10;99.90;;;;;;5052374;28;20195;-86
2021/12/10 11:49:42;;;;;;;5.10;3.70;;;3.10;99.90;;;;;;5080237;28;20207;-87
2021/12/10 11:52:16;;;;;;;5.93;4.70;;;3.10;99.90;;;;;;5058143;28;20208;-87
2021/12/10 11:55:07;;;;;;;6.30;4.40;;;3.10;99.90;;;;;;5083211;28;20186;-86
2021/12/10 11:57:39;;;;;;;5.93;5.00;;;3.20;99.90;;;;;;5084938;28;20305;-87
2021/12/10 12:00:18;;;;;;;5.90;4.90;;;3.20;99.90;;;;;;5079517;28;20215;-87
2021/12/10 12:02:51;;;;;;;6.13;4.90;;;3.20;99.90;;;;;;5062606;28;20185;-87
2021/12/10 12:05:21;;;;;;;5.27;4.43;;;3.20;99.90;;;;;;5078681;28;20258;-87
2021/12/10 12:07:52;;;;;;;10.93;10.00;;;3.20;99.90;;;;;;5080137;28;20203;-86
2021/12/10 12:10:22;;;;;;;7.17;6.47;;;3.30;99.90;;;;;;5053683;28;20205;-87
2021/12/10 12:13:30;;;;;;;11.63;10.47;;;3.40;99.90;;;;;;5077408;28;20331;-86
2021/12/10 12:15:53;;;;;;;9.57;8.67;;;3.30;99.90;;;;;;5072436;28;20206;-87
2021/12/10 12:18:29;;;;;;;14.17;12.77;;;3.40;99.90;;;;;;5077014;28;20219;-86
2021/12/10 12:20:58;;;;;;;7.77;6.60;;;3.30;99.90;;;;;;5067562;28;20198;-86
2021/12/10 12:26:24;;;;;;;6.23;5.63;;;3.40;99.90;;;;;;5079006;28;20193;-86
2021/12/10 12:28:56;;;;;;;4.90;4.23;;;3.40;99.90;;;;;;5078984;28;20213;-85
2021/12/10 12:31:28;;;;;;;5.83;4.00;;;3.40;99.90;;;;;;5061146;28;20249;-85
2021/12/10 12:34:05;;;;;;;5.80;4.53;;;3.30;99.90;;;;;;5078875;28;20739;-87
2021/12/10 12:36:50;;;;;;;3.70;3.30;;;3.50;99.90;;;;;;5063297;28;20186;-87
2021/12/10 12:39:39;;;;;;;5.80;4.37;;;3.50;99.90;;;;;;5075175;28;20289;-87
2021/12/10 12:42:18;;;;;;;7.33;5.37;;;3.50;99.90;;;;;;5077255;28;20215;-87
2021/12/10 12:44:46;;;;;;;42.90;32.57;;;3.40;99.90;;;;;;5082569;28;20672;-87
2021/12/10 12:47:45;;;;;;;6.20;5.00;;;3.50;99.90;;;;;;5079173;28;20521;-87
2021/12/10 12:50:27;;;;;;;5.07;3.93;;;3.40;99.90;;;;;;5058344;28;20266;-87
2021/12/10 12:53:08;;;;;;;4.57;4.03;;;3.40;99.90;;;;;;5076585;28;20179;-87
2021/12/10 12:55:47;;;;;;;5.83;3.50;;;3.50;99.90;;;;;;5077477;28;20191;-87
2021/12/10 12:58:13;;;;;;;4.33;3.77;;;3.60;99.90;;;;;;5068160;28;20398;-87
2021/12/10 13:01:20;;;;;;;4.00;3.60;;;3.70;99.90;;;;;;5059378;28;20181;-87
2021/12/10 13:04:15;;;;;;;4.80;3.77;;;3.70;99.90;;;;;;5077852;28;20228;-85
2021/12/10 13:06:54;;;;;;;5.67;4.13;;;3.70;99.90;;;;;;5074370;28;20217;-86
2021/12/10 13:09:23;;;;;;;4.40;3.67;;;3.70;99.90;;;;;;5077636;28;20282;-86
2021/12/10 13:12:10;;;;;;;5.27;3.93;;;3.80;99.80;;;;;;5084066;28;20176;-86
2021/12/10 13:14:53;;;;;;;7.00;5.40;;;3.80;99.50;;;;;;5063052;28;20202;-86
2021/12/10 13:17:25;;;;;;;6.90;4.63;;;3.80;99.40;;;;;;5072301;28;20199;-86
2021/12/10 13:19:53;;;;;;;5.03;3.80;;;3.50;99.90;;;;;;5078210;28;20291;-85
2021/12/10 13:22:25;;;;;;;4.53;4.13;;;3.40;99.90;;;;;;5081292;28;20221;-86
2021/12/10 13:24:54;;;;;;;5.97;3.90;;;3.30;99.90;;;;;;5081993;28;20195;-86
2021/12/10 13:27:24;;;;;;;4.30;3.90;;;3.10;99.90;;;;;;5079692;28;20287;-86
2021/12/10 13:29:50;;;;;;;4.30;3.90;;;2.90;99.90;;;;;;5074149;28;20204;-86
2021/12/10 13:32:16;;;;;;;4.30;3.90;;;2.70;99.90;;;;;;5084349;28;20580;-85
2021/12/10 13:34:42;;;;;;;7.67;4.60;;;2.40;99.90;;;;;;5066897;28;20195;-86
2021/12/10 13:37:14;;;;;;;5.40;4.80;;;2.20;99.90;;;;;;5079104;28;20178;-86